Time;durP1;ratioP1;P1;durP2;ratioP2;P2;SDS_P1;SDS_P2;PMS_P1;PMS_P2;Temp;Humidity;BMP_temperature;BMP_pressure;BME280_temperature;BME280_humidity;BME280_pressure;Samples;Min_cycle;Max_cycle;Signal;HPM_P1;HPM_P2
2022/03/14 00:01:14;;;;;;;18.05;10.20;;;;;;;;;;5050727;28;20100;-76
2022/03/14 00:03:59;;;;;;;19.92;10.48;;;;;;;;;;5067854;28;20576;-76
2022/03/14 00:06:25;;;;;;;19.63;10.63;;;;;;;;;;5067672;28;20105;-76
2022/03/14 00:08:57;;;;;;;17.00;9.57;;;;;;;;;;5067713;28;20040;-76
2022/03/14 00:11:24;;;;;;;16.85;9.77;;;;;;;;;;5051753;28;20032;-77
2022/03/14 00:13:50;;;;;;;17.70;10.02;;;;;;;;;;5054306;28;20434;-76
2022/03/14 00:16:25;;;;;;;20.23;11.10;;;;;;;;;;5070959;28;20209;-76
2022/03/14 00:18:52;;;;;;;17.52;9.80;;;;;;;;;;5070792;28;20055;-75
2022/03/14 00:21:20;;;;;;;22.15;10.70;;;;;;;;;;5054312;28;20052;-74
2022/03/14 00:23:46;;;;;;;22.20;11.20;;;;;;;;;;5053737;28;20063;-76
2022/03/14 00:26:12;;;;;;;26.40;11.13;;;;;;;;;;5070413;28;20036;-76
2022/03/14 00:28:38;;;;;;;21.70;11.18;;;;;;;;;;5053552;28;20040;-75
2022/03/14 00:31:04;;;;;;;19.05;10.23;;;;;;;;;;5070464;28;20045;-75
2022/03/14 00:33:30;;;;;;;18.70;10.38;;;;;;;;;;5070474;28;20044;-76
2022/03/14 00:35:57;;;;;;;19.65;9.90;;;;;;;;;;5053596;28;20040;-76
2022/03/14 00:38:24;;;;;;;20.17;10.45;;;;;;;;;;5069721;28;20037;-75
2022/03/14 00:40:51;;;;;;;19.17;10.38;;;;;;;;;;5050034;28;20053;-76
2022/03/14 00:43:17;;;;;;;18.63;10.15;;;;;;;;;;5066107;28;20101;-75
2022/03/14 00:45:43;;;;;;;20.50;11.10;;;;;;;;;;5050535;28;20432;-76
2022/03/14 00:48:10;;;;;;;20.48;10.20;;;;;;;;;;5050677;28;20041;-76
2022/03/14 00:50:36;;;;;;;22.67;11.35;;;;;;;;;;5067624;28;20260;-76
2022/03/14 00:53:02;;;;;;;23.70;10.93;;;;;;;;;;5067403;28;20052;-76
2022/03/14 00:55:28;;;;;;;20.67;10.43;;;;;;;;;;5050224;28;20084;-76
2022/03/14 00:57:54;;;;;;;26.13;11.55;;;;;;;;;;5070587;28;20044;-76
2022/03/14 01:00:20;;;;;;;17.50;9.50;;;;;;;;;;5053817;28;20083;-75
2022/03/14 01:02:50;;;;;;;18.67;9.60;;;;;;;;;;5053831;28;20101;-76
2022/03/14 01:05:16;;;;;;;19.85;10.85;;;;;;;;;;5070726;28;20046;-77
2022/03/14 01:07:42;;;;;;;19.08;9.25;;;;;;;;;;5070881;28;20047;-77
2022/03/14 01:10:08;;;;;;;18.00;9.68;;;;;;;;;;5070626;28;20488;-77
2022/03/14 01:12:34;;;;;;;19.65;9.57;;;;;;;;;;5071408;28;20088;-76
2022/03/14 01:15:01;;;;;;;19.63;9.10;;;;;;;;;;5054754;28;20100;-76
2022/03/14 01:17:26;;;;;;;17.75;8.75;;;;;;;;;;5072089;28;20044;-77
2022/03/14 01:19:53;;;;;;;23.40;10.20;;;;;;;;;;5054677;28;20055;-77
2022/03/14 01:22:19;;;;;;;22.92;10.45;;;;;;;;;;5070764;28;20090;-76
2022/03/14 01:24:45;;;;;;;17.40;8.38;;;;;;;;;;5071508;28;20036;-77
2022/03/14 01:27:11;;;;;;;25.65;10.32;;;;;;;;;;5070541;28;20041;-76
2022/03/14 01:29:38;;;;;;;14.88;8.27;;;;;;;;;;5054239;28;20493;-76
2022/03/14 01:32:04;;;;;;;13.23;6.68;;;;;;;;;;5071682;28;20475;-76
2022/03/14 01:34:30;;;;;;;14.52;7.53;;;;;;;;;;5055022;28;20044;-76
2022/03/14 01:36:57;;;;;;;14.52;7.47;;;;;;;;;;5054410;28;20052;-77
2022/03/14 01:39:23;;;;;;;11.68;6.65;;;;;;;;;;5054896;28;20478;-77
2022/03/14 01:41:49;;;;;;;13.52;6.72;;;;;;;;;;5070294;28;20044;-77
2022/03/14 01:44:15;;;;;;;12.77;6.78;;;;;;;;;;5052928;28;20048;-77
2022/03/14 01:46:42;;;;;;;11.05;5.75;;;;;;;;;;5070171;28;20060;-76
2022/03/14 01:49:09;;;;;;;10.05;6.18;;;;;;;;;;5071011;28;20082;-77
2022/03/14 01:51:35;;;;;;;10.40;6.45;;;;;;;;;;5070908;28;20052;-76
2022/03/14 01:54:02;;;;;;;10.82;6.00;;;;;;;;;;5070412;28;20056;-76
2022/03/14 01:56:28;;;;;;;9.68;5.47;;;;;;;;;;5052497;28;20052;-76
2022/03/14 01:58:55;;;;;;;11.68;5.95;;;;;;;;;;5070448;28;20044;-77
2022/03/14 02:01:21;;;;;;;10.35;6.15;;;;;;;;;;5069702;28;20044;-77
2022/03/14 02:03:50;;;;;;;10.77;5.65;;;;;;;;;;5052546;28;20522;-77
2022/03/14 02:06:17;;;;;;;12.20;6.22;;;;;;;;;;5052580;28;20046;-77
2022/03/14 02:08:43;;;;;;;10.52;6.30;;;;;;;;;;5052136;28;20507;-77
2022/03/14 02:11:09;;;;;;;11.20;6.45;;;;;;;;;;5056087;28;20040;-77
2022/03/14 02:13:35;;;;;;;12.13;6.25;;;;;;;;;;5055784;28;20047;-77
2022/03/14 02:16:01;;;;;;;10.85;6.30;;;;;;;;;;5056183;28;20053;-76
2022/03/14 02:18:27;;;;;;;10.18;6.15;;;;;;;;;;5072448;28;20408;-76
2022/03/14 02:20:53;;;;;;;11.10;6.20;;;;;;;;;;5055557;28;20040;-77
2022/03/14 02:23:19;;;;;;;11.00;6.15;;;;;;;;;;5055658;28;20090;-76
2022/03/14 02:25:52;;;;;;;8.65;5.68;;;;;;;;;;5072576;28;20068;-76
2022/03/14 02:28:20;;;;;;;10.43;6.32;;;;;;;;;;5072813;28;20041;-77
2022/03/14 02:30:46;;;;;;;11.20;5.95;;;;;;;;;;5057722;28;20072;-76
2022/03/14 02:33:12;;;;;;;10.13;5.60;;;;;;;;;;5073951;28;20052;-77
2022/03/14 02:35:41;;;;;;;9.20;5.18;;;;;;;;;;5073146;28;20407;-77
2022/03/14 02:38:12;;;;;;;10.98;5.90;;;;;;;;;;5072762;28;20519;-77
2022/03/14 02:40:39;;;;;;;8.95;5.63;;;;;;;;;;5055356;28;20078;-77
2022/03/14 02:43:05;;;;;;;6.85;4.72;;;;;;;;;;5071761;28;20056;-77
2022/03/14 02:45:31;;;;;;;8.63;5.20;;;;;;;;;;5055053;28;20070;-77
2022/03/14 02:47:57;;;;;;;9.98;5.43;;;;;;;;;;5055500;28;20040;-77
2022/03/14 02:50:23;;;;;;;9.52;5.40;;;;;;;;;;5054906;28;20040;-77
2022/03/14 02:52:49;;;;;;;9.93;5.47;;;;;;;;;;5071729;28;20128;-77
2022/03/14 02:55:17;;;;;;;9.40;5.35;;;;;;;;;;5071770;28;20083;-77
2022/03/14 02:57:43;;;;;;;10.90;5.40;;;;;;;;;;5055007;28;20082;-77
2022/03/14 03:00:10;;;;;;;8.20;4.93;;;;;;;;;;5072035;28;20044;-76
2022/03/14 03:02:37;;;;;;;10.00;6.18;;;;;;;;;;5055250;28;20040;-77
2022/03/14 03:05:05;;;;;;;9.15;5.20;;;;;;;;;;5055400;28;20040;-77
2022/03/14 03:07:31;;;;;;;8.48;4.90;;;;;;;;;;5056129;28;20369;-76
2022/03/14 03:09:57;;;;;;;7.55;4.28;;;;;;;;;;5055376;28;20040;-77
2022/03/14 03:12:25;;;;;;;7.10;4.10;;;;;;;;;;5055434;28;20036;-76
2022/03/14 03:14:51;;;;;;;7.13;4.28;;;;;;;;;;5071916;28;20064;-76
2022/03/14 03:17:19;;;;;;;9.23;3.97;;;;;;;;;;5055070;28;20036;-76
2022/03/14 03:19:45;;;;;;;7.18;4.30;;;;;;;;;;5071867;28;20040;-77
2022/03/14 03:22:11;;;;;;;8.70;4.25;;;;;;;;;;5071757;28;20039;-77
2022/03/14 03:24:37;;;;;;;8.48;4.22;;;;;;;;;;5054775;28;20121;-76
2022/03/14 03:27:03;;;;;;;6.88;4.25;;;;;;;;;;5054838;28;20070;-77
2022/03/14 03:29:29;;;;;;;6.63;4.53;;;;;;;;;;5054794;28;20047;-77
2022/03/14 03:31:55;;;;;;;6.53;4.10;;;;;;;;;;5055566;28;20131;-77
2022/03/14 03:34:21;;;;;;;6.40;4.05;;;;;;;;;;5055329;28;20044;-77
2022/03/14 03:36:47;;;;;;;7.20;3.78;;;;;;;;;;5071985;28;20048;-76
2022/03/14 03:39:13;;;;;;;5.90;3.83;;;;;;;;;;5055524;28;20085;-77
2022/03/14 03:41:39;;;;;;;8.98;4.55;;;;;;;;;;5071555;28;20051;-77
2022/03/14 03:44:06;;;;;;;6.18;3.42;;;;;;;;;;5071855;28;20083;-75
2022/03/14 03:46:32;;;;;;;5.68;3.15;;;;;;;;;;5071573;28;20060;-76
2022/03/14 03:48:58;;;;;;;6.90;3.85;;;;;;;;;;5055069;28;20036;-77
2022/03/14 03:51:24;;;;;;;5.78;3.50;;;;;;;;;;5071400;28;20040;-77
2022/03/14 03:53:50;;;;;;;6.75;3.60;;;;;;;;;;5071324;28;20037;-76
2022/03/14 03:56:16;;;;;;;7.13;3.90;;;;;;;;;;5070785;28;20047;-77
2022/03/14 03:58:42;;;;;;;5.38;3.40;;;;;;;;;;5052442;28;20039;-77
2022/03/14 04:01:08;;;;;;;6.38;4.03;;;;;;;;;;5053707;28;20041;-77
2022/03/14 04:03:34;;;;;;;6.55;3.90;;;;;;;;;;5070403;28;20045;-77
2022/03/14 04:06:00;;;;;;;7.10;4.05;;;;;;;;;;5070566;28;20400;-77
2022/03/14 04:08:32;;;;;;;5.30;3.70;;;;;;;;;;5070331;28;20033;-77
2022/03/14 04:10:58;;;;;;;;;;;;;;;;;;5054470;28;20515;-76
2022/03/14 04:13:29;;;;;;;9.63;4.63;;;;;;;;;;5053876;28;19916;-76
2022/03/14 04:15:57;;;;;;;6.75;3.75;;;;;;;;;;5070277;28;20066;-76
2022/03/14 04:18:27;;;;;;;7.55;4.38;;;;;;;;;;5054205;28;20042;-76
2022/03/14 04:20:55;;;;;;;7.90;4.40;;;;;;;;;;5054511;28;20079;-77
2022/03/14 04:23:21;;;;;;;7.25;4.63;;;;;;;;;;5054080;28;20553;-75
2022/03/14 04:25:47;;;;;;;6.47;4.28;;;;;;;;;;5070584;28;20032;-76
2022/03/14 04:28:13;;;;;;;6.45;4.13;;;;;;;;;;5053997;28;20107;-77
2022/03/14 04:30:39;;;;;;;8.38;4.72;;;;;;;;;;5071999;28;20064;-75
2022/03/14 04:33:07;;;;;;;6.35;3.70;;;;;;;;;;5077436;28;20048;-77
2022/03/14 04:35:33;;;;;;;6.15;3.95;;;;;;;;;;5077380;28;20089;-76
2022/03/14 04:37:59;;;;;;;5.80;3.67;;;;;;;;;;5077034;28;20040;-76
2022/03/14 04:40:25;;;;;;;6.85;3.70;;;;;;;;;;5077240;28;20040;-77
2022/03/14 04:42:51;;;;;;;4.13;3.45;;;;;;;;;;5077008;28;20040;-77
2022/03/14 04:45:17;;;;;;;6.43;3.38;;;;;;;;;;5060270;28;20039;-77
2022/03/14 04:47:43;;;;;;;7.13;3.97;;;;;;;;;;5077410;28;20048;-75
2022/03/14 04:50:09;;;;;;;8.13;4.07;;;;;;;;;;5077232;28;20174;-75
2022/03/14 04:52:35;;;;;;;4.75;2.92;;;;;;;;;;5076988;28;20127;-76
2022/03/14 04:55:02;;;;;;;4.68;3.63;;;;;;;;;;5077661;28;20040;-76
2022/03/14 04:57:28;;;;;;;5.93;3.60;;;;;;;;;;5077191;28;20412;-76
2022/03/14 04:59:54;;;;;;;5.25;3.33;;;;;;;;;;5060389;28;20041;-76
2022/03/14 05:02:23;;;;;;;5.82;3.25;;;;;;;;;;5060291;28;20128;-75
2022/03/14 05:04:52;;;;;;;5.35;3.72;;;;;;;;;;5077181;28;20492;-76
2022/03/14 05:07:19;;;;;;;5.28;3.80;;;;;;;;;;5061432;28;20040;-77
2022/03/14 05:09:45;;;;;;;5.03;3.40;;;;;;;;;;5061323;28;20090;-77
2022/03/14 05:12:14;;;;;;;6.13;3.97;;;;;;;;;;5061455;28;20484;-76
2022/03/14 05:14:40;;;;;;;5.95;3.88;;;;;;;;;;5077498;28;20637;-76
2022/03/14 05:17:06;;;;;;;6.97;4.00;;;;;;;;;;5060463;28;20048;-76
2022/03/14 05:19:32;;;;;;;6.38;4.18;;;;;;;;;;5077491;28;20066;-76
2022/03/14 05:21:58;;;;;;;4.45;3.10;;;;;;;;;;5061452;28;20547;-77
2022/03/14 05:24:24;;;;;;;5.28;3.40;;;;;;;;;;5076194;28;20040;-77
2022/03/14 05:26:52;;;;;;;8.00;4.30;;;;;;;;;;5076415;28;20048;-77
2022/03/14 05:29:19;;;;;;;10.32;4.10;;;;;;;;;;5076191;28;20086;-78
2022/03/14 05:31:45;;;;;;;6.35;3.90;;;;;;;;;;5076733;28;20055;-77
2022/03/14 05:34:11;;;;;;;7.57;3.78;;;;;;;;;;5059571;28;20044;-77
2022/03/14 05:36:37;;;;;;;6.25;3.72;;;;;;;;;;5060270;28;20570;-77
2022/03/14 05:39:04;;;;;;;4.80;3.58;;;;;;;;;;5076697;28;20123;-76
2022/03/14 05:41:30;;;;;;;6.28;3.92;;;;;;;;;;5077332;28;20127;-77
2022/03/14 05:43:56;;;;;;;7.50;3.65;;;;;;;;;;5057152;28;20158;-76
2022/03/14 05:46:22;;;;;;;7.65;3.90;;;;;;;;;;5057693;28;20056;-77
2022/03/14 05:48:48;;;;;;;6.07;3.50;;;;;;;;;;5056760;28;20044;-76
2022/03/14 05:51:14;;;;;;;7.72;3.95;;;;;;;;;;5056900;28;20072;-75
2022/03/14 05:53:40;;;;;;;6.40;3.58;;;;;;;;;;5056408;28;20071;-75
2022/03/14 05:56:06;;;;;;;4.82;3.28;;;;;;;;;;5056234;28;20040;-75
2022/03/14 05:58:32;;;;;;;7.00;3.70;;;;;;;;;;5056681;28;20131;-75
2022/03/14 06:00:58;;;;;;;4.57;3.45;;;;;;;;;;5056023;28;20052;-76
2022/03/14 06:03:24;;;;;;;6.28;3.53;;;;;;;;;;5056421;28;20430;-74
2022/03/14 06:05:50;;;;;;;8.00;4.18;;;;;;;;;;5072983;28;20039;-75
2022/03/14 06:08:16;;;;;;;9.18;4.75;;;;;;;;;;5073533;28;20098;-77
2022/03/14 06:10:45;;;;;;;5.60;3.88;;;;;;;;;;5072688;28;20048;-75
2022/03/14 06:13:11;;;;;;;5.50;3.33;;;;;;;;;;5055784;28;20070;-74
2022/03/14 06:15:37;;;;;;;5.65;3.60;;;;;;;;;;5072567;28;20061;-75
2022/03/14 06:18:03;;;;;;;5.35;3.45;;;;;;;;;;5056150;28;20135;-75
2022/03/14 06:20:29;;;;;;;7.32;3.92;;;;;;;;;;5072439;28;20044;-75
2022/03/14 06:22:55;;;;;;;4.38;3.05;;;;;;;;;;5055775;28;20456;-74
2022/03/14 06:25:21;;;;;;;6.38;3.53;;;;;;;;;;5055629;28;20032;-75
2022/03/14 06:27:47;;;;;;;6.60;3.22;;;;;;;;;;5055801;28;20040;-76
2022/03/14 06:30:14;;;;;;;5.82;3.80;;;;;;;;;;5072468;28;20044;-75
2022/03/14 06:32:41;;;;;;;5.55;3.30;;;;;;;;;;5055653;28;20229;-75
2022/03/14 06:35:09;;;;;;;4.80;3.25;;;;;;;;;;5055445;28;20056;-75
2022/03/14 06:37:35;;;;;;;5.40;3.70;;;;;;;;;;5055714;28;20033;-76
2022/03/14 06:40:01;;;;;;;5.10;3.33;;;;;;;;;;5055315;28;20036;-74
2022/03/14 06:42:29;;;;;;;8.77;3.83;;;;;;;;;;5072050;28;20079;-74
2022/03/14 06:45:00;;;;;;;6.30;4.05;;;;;;;;;;5072282;28;20068;-73
2022/03/14 06:47:26;;;;;;;4.85;3.30;;;;;;;;;;5072993;28;20072;-74
2022/03/14 06:49:52;;;;;;;6.70;4.00;;;;;;;;;;5055687;28;20044;-76
2022/03/14 06:52:18;;;;;;;5.50;3.63;;;;;;;;;;5055679;28;20127;-76
2022/03/14 06:54:44;;;;;;;7.47;3.42;;;;;;;;;;5054698;28;20036;-75
2022/03/14 06:57:10;;;;;;;9.70;4.13;;;;;;;;;;5071872;28;20047;-75
2022/03/14 06:59:37;;;;;;;6.30;3.85;;;;;;;;;;5055326;28;20037;-74
2022/03/14 07:02:03;;;;;;;6.75;4.05;;;;;;;;;;5071988;28;20097;-76
2022/03/14 07:04:29;;;;;;;6.68;3.80;;;;;;;;;;5054944;28;20041;-75
2022/03/14 07:06:56;;;;;;;6.43;3.58;;;;;;;;;;5055021;28;20033;-75
2022/03/14 07:09:22;;;;;;;6.65;3.90;;;;;;;;;;5055070;28;20033;-77
2022/03/14 07:11:51;;;;;;;5.70;3.42;;;;;;;;;;5055286;28;20033;-77
2022/03/14 07:14:19;;;;;;;7.28;4.65;;;;;;;;;;5054699;28;20455;-76
2022/03/14 07:16:45;;;;;;;5.78;3.67;;;;;;;;;;5054732;28;20094;-76
2022/03/14 07:19:11;;;;;;;6.47;4.07;;;;;;;;;;5071198;28;20467;-76
2022/03/14 07:21:38;;;;;;;6.97;4.22;;;;;;;;;;5071256;28;20037;-75
2022/03/14 07:24:04;;;;;;;6.13;3.85;;;;;;;;;;5054403;28;20041;-76
2022/03/14 07:26:30;;;;;;;5.97;3.75;;;;;;;;;;5071139;28;20297;-75
2022/03/14 07:28:56;;;;;;;8.85;4.88;;;;;;;;;;5054507;28;20068;-76
2022/03/14 07:31:22;;;;;;;10.02;4.32;;;;;;;;;;5070781;28;20484;-75
2022/03/14 07:33:48;;;;;;;8.10;4.25;;;;;;;;;;5071014;28;20049;-76
2022/03/14 07:36:15;;;;;;;7.97;4.85;;;;;;;;;;5070889;28;20413;-77
2022/03/14 07:38:41;;;;;;;5.80;4.28;;;;;;;;;;5054120;28;20508;-75
2022/03/14 07:41:08;;;;;;;8.82;4.93;;;;;;;;;;5070840;28;20137;-76
2022/03/14 07:43:34;;;;;;;8.75;4.50;;;;;;;;;;5053929;28;20049;-75
2022/03/14 07:46:01;;;;;;;9.43;5.07;;;;;;;;;;5053746;28;20072;-77
2022/03/14 07:48:28;;;;;;;7.22;4.45;;;;;;;;;;5070713;28;20044;-76
2022/03/14 07:50:54;;;;;;;9.13;4.70;;;;;;;;;;5070613;28;20121;-76
2022/03/14 07:53:20;;;;;;;9.63;5.05;;;;;;;;;;5070736;28;20083;-77
2022/03/14 07:55:46;;;;;;;9.93;4.95;;;;;;;;;;5053928;28;20435;-76
2022/03/14 07:58:12;;;;;;;9.85;5.40;;;;;;;;;;5067105;28;20067;-76
2022/03/14 08:00:38;;;;;;;9.23;5.30;;;;;;;;;;5066922;28;20565;-75
2022/03/14 08:03:04;;;;;;;7.70;5.28;;;;;;;;;;5050117;28;20033;-77
2022/03/14 08:05:30;;;;;;;9.18;5.97;;;;;;;;;;5049689;28;20135;-76
2022/03/14 08:07:57;;;;;;;9.13;5.07;;;;;;;;;;5050619;28;20136;-76
2022/03/14 08:10:23;;;;;;;11.75;5.63;;;;;;;;;;5049734;28;20076;-75
2022/03/14 08:12:50;;;;;;;10.52;5.35;;;;;;;;;;5067326;28;20055;-76
2022/03/14 08:15:20;;;;;;;9.82;5.15;;;;;;;;;;5066614;28;20575;-77
2022/03/14 08:17:46;;;;;;;8.57;5.38;;;;;;;;;;5050392;28;20040;-75
2022/03/14 08:20:12;;;;;;;10.02;5.72;;;;;;;;;;5049978;28;20040;-77
2022/03/14 08:22:39;;;;;;;9.98;5.38;;;;;;;;;;5066746;28;20059;-77
2022/03/14 08:25:05;;;;;;;7.78;5.32;;;;;;;;;;5066661;28;20045;-76
2022/03/14 08:27:31;;;;;;;8.73;5.78;;;;;;;;;;5050282;28;20079;-77
2022/03/14 08:29:58;;;;;;;10.98;5.90;;;;;;;;;;5066453;28;20037;-76
2022/03/14 08:32:24;;;;;;;10.38;6.13;;;;;;;;;;5050417;28;20132;-77
2022/03/14 08:34:52;;;;;;;10.75;5.72;;;;;;;;;;5049978;28;20044;-74
2022/03/14 08:37:18;;;;;;;8.18;5.35;;;;;;;;;;5066991;28;20535;-77
2022/03/14 08:39:45;;;;;;;11.45;6.50;;;;;;;;;;5066913;28;20044;-77
2022/03/14 08:42:11;;;;;;;15.68;6.53;;;;;;;;;;5050118;28;20044;-77
2022/03/14 08:44:37;;;;;;;9.45;4.80;;;;;;;;;;5066708;28;20103;-76
2022/03/14 08:47:03;;;;;;;9.82;5.85;;;;;;;;;;5066045;28;20080;-75
2022/03/14 08:49:29;;;;;;;11.40;6.72;;;;;;;;;;5068212;28;20049;-77
2022/03/14 08:51:55;;;;;;;8.32;6.05;;;;;;;;;;5053300;28;20131;-76
2022/03/14 08:54:21;;;;;;;9.43;5.53;;;;;;;;;;5069531;28;20040;-76
2022/03/14 08:56:47;;;;;;;14.32;6.07;;;;;;;;;;5069930;28;20256;-77
2022/03/14 08:59:14;;;;;;;10.00;5.65;;;;;;;;;;5070039;28;20044;-76
2022/03/14 09:01:40;;;;;;;10.20;6.07;;;;;;;;;;5069919;28;20048;-77
2022/03/14 09:04:06;;;;;;;11.25;5.95;;;;;;;;;;5053117;28;20504;-77
2022/03/14 09:06:35;;;;;;;10.35;6.78;;;;;;;;;;5052815;28;20086;-76
2022/03/14 09:09:01;;;;;;;10.85;6.55;;;;;;;;;;5067169;28;20044;-76
2022/03/14 09:11:27;;;;;;;11.43;5.80;;;;;;;;;;5066576;28;20067;-77
2022/03/14 09:13:53;;;;;;;11.52;6.75;;;;;;;;;;5049333;28;20032;-77
2022/03/14 09:16:20;;;;;;;10.68;6.28;;;;;;;;;;5065529;28;20052;-77
2022/03/14 09:18:46;;;;;;;11.23;6.65;;;;;;;;;;5052547;28;20086;-77
2022/03/14 09:21:14;;;;;;;11.02;6.20;;;;;;;;;;5069718;28;20763;-76
2022/03/14 09:23:40;;;;;;;14.05;8.10;;;;;;;;;;5066908;28;20123;-76
2022/03/14 09:26:06;;;;;;;11.07;6.63;;;;;;;;;;5069613;28;20036;-76
2022/03/14 09:28:32;;;;;;;11.15;6.45;;;;;;;;;;5069098;28;20472;-76
2022/03/14 09:30:58;;;;;;;12.77;6.82;;;;;;;;;;5052891;28;20049;-77
2022/03/14 09:33:24;;;;;;;11.38;7.00;;;;;;;;;;5052583;28;20032;-78
2022/03/14 09:35:50;;;;;;;11.48;6.45;;;;;;;;;;5052608;28;20041;-77
2022/03/14 09:38:17;;;;;;;12.23;7.60;;;;;;;;;;5052588;28;20040;-77
2022/03/14 09:40:47;;;;;;;11.73;7.38;;;;;;;;;;5068660;28;20407;-77
2022/03/14 09:43:16;;;;;;;10.50;6.57;;;;;;;;;;5052371;28;20041;-77
2022/03/14 09:45:44;;;;;;;13.55;7.53;;;;;;;;;;5049848;28;20279;-74
2022/03/14 09:48:11;;;;;;;14.13;7.10;;;;;;;;;;5068765;28;20070;-77
2022/03/14 09:50:41;;;;;;;11.85;7.72;;;;;;;;;;5069734;28;20051;-75
2022/03/14 09:53:11;;;;;;;12.27;7.00;;;;;;;;;;5069140;28;20131;-76
2022/03/14 09:55:43;;;;;;;12.88;6.50;;;;;;;;;;5069009;28;20089;-77
2022/03/14 09:58:14;;;;;;;10.90;6.80;;;;;;;;;;5069867;28;20504;-75
2022/03/14 10:00:40;;;;;;;;;;;;;;;;;;5053296;28;20496;-76
2022/03/14 10:03:06;;;;;;;13.88;7.25;;;;;;;;;;5068900;28;20014;-76
2022/03/14 10:05:32;;;;;;;15.07;7.75;;;;;;;;;;5052450;28;20044;-76
2022/03/14 10:07:59;;;;;;;13.75;8.02;;;;;;;;;;5069372;28;20051;-76
2022/03/14 10:10:25;;;;;;;12.95;7.40;;;;;;;;;;5069587;28;20040;-74
2022/03/14 10:12:58;;;;;;;15.82;7.45;;;;;;;;;;5069262;28;20081;-76
2022/03/14 10:15:25;;;;;;;19.20;9.45;;;;;;;;;;5069083;28;20048;-76
2022/03/14 10:17:55;;;;;;;15.52;8.63;;;;;;;;;;5052532;28;20120;-76
2022/03/14 10:20:22;;;;;;;16.52;7.40;;;;;;;;;;5053011;28;20032;-74
2022/03/14 10:22:48;;;;;;;15.07;8.32;;;;;;;;;;5069694;28;20036;-74
2022/03/14 10:25:16;;;;;;;19.98;9.55;;;;;;;;;;5052778;28;20549;-77
2022/03/14 10:27:45;;;;;;;18.42;9.20;;;;;;;;;;5068510;28;20044;-76
2022/03/14 10:30:22;;;;;;;19.65;9.15;;;;;;;;;;5051339;28;20037;-76
2022/03/14 10:32:49;;;;;;;14.45;8.02;;;;;;;;;;5069100;28;20058;-76
2022/03/14 10:35:20;;;;;;;16.60;6.65;;;;;;;;;;5052479;28;20036;-77
2022/03/14 10:38:01;;;;;;;14.18;5.90;;;;;;;;;;5069063;28;20083;-75
2022/03/14 10:40:35;;;;;;;9.18;3.63;;;;;;;;;;5068774;28;20044;-78
2022/03/14 10:43:01;;;;;;;8.98;3.85;;;;;;;;;;5051910;28;20040;-74
2022/03/14 10:45:30;;;;;;;7.28;3.58;;;;;;;;;;5052288;28;20662;-74
2022/03/14 10:47:57;;;;;;;7.88;3.95;;;;;;;;;;5052010;28;20036;-74
2022/03/14 10:50:29;;;;;;;9.25;3.83;;;;;;;;;;5068702;28;20093;-75
2022/03/14 10:53:02;;;;;;;11.48;4.80;;;;;;;;;;5051404;28;20102;-77
2022/03/14 10:55:38;;;;;;;9.90;4.68;;;;;;;;;;5051552;28;20148;-74
2022/03/14 10:58:27;;;;;;;8.18;4.03;;;;;;;;;;5051989;28;20051;-75
2022/03/14 11:00:55;;;;;;;10.70;4.50;;;;;;;;;;5051733;28;20047;-76
2022/03/14 11:03:29;;;;;;;11.93;5.03;;;;;;;;;;5067452;28;20795;-75
2022/03/14 11:05:58;;;;;;;12.88;5.43;;;;;;;;;;5065993;28;20124;-75
2022/03/14 11:08:41;;;;;;;11.85;5.68;;;;;;;;;;5051188;28;20036;-75
2022/03/14 11:11:08;;;;;;;10.38;4.95;;;;;;;;;;5050835;28;20408;-77
2022/03/14 11:13:43;;;;;;;13.50;5.30;;;;;;;;;;5067384;28;20044;-77
2022/03/14 11:16:19;;;;;;;12.63;5.93;;;;;;;;;;5067069;28;20048;-77
2022/03/14 11:18:46;;;;;;;16.98;6.18;;;;;;;;;;5051513;28;20044;-77
2022/03/14 11:21:16;;;;;;;20.50;16.42;;;;;;;;;;5054573;28;20043;-76
2022/03/14 11:23:43;;;;;;;15.93;7.30;;;;;;;;;;5054117;28;20041;-78
2022/03/14 11:26:11;;;;;;;16.02;6.80;;;;;;;;;;5070643;28;20029;-77
2022/03/14 11:28:38;;;;;;;17.30;7.72;;;;;;;;;;5054218;28;20489;-77
2022/03/14 11:31:05;;;;;;;19.23;7.70;;;;;;;;;;5053772;28;20036;-78
2022/03/14 11:33:32;;;;;;;19.05;7.75;;;;;;;;;;5054312;28;20040;-78
2022/03/14 11:36:02;;;;;;;18.58;7.45;;;;;;;;;;5054276;28;20032;-77
2022/03/14 11:38:29;;;;;;;22.52;7.95;;;;;;;;;;5053622;28;20119;-76
2022/03/14 11:40:55;;;;;;;20.48;8.07;;;;;;;;;;5070425;28;20132;-75
2022/03/14 11:43:22;;;;;;;14.77;7.05;;;;;;;;;;5054138;28;20045;-77
2022/03/14 11:45:50;;;;;;;15.35;6.63;;;;;;;;;;5070537;28;20047;-77
2022/03/14 11:48:16;;;;;;;13.88;6.05;;;;;;;;;;5070395;28;20041;-78
2022/03/14 11:50:44;;;;;;;15.30;6.72;;;;;;;;;;5070005;28;20435;-77
2022/03/14 11:53:10;;;;;;;14.32;6.13;;;;;;;;;;5053176;28;20132;-79
2022/03/14 11:55:49;;;;;;;15.65;6.60;;;;;;;;;;5069830;28;20036;-78
2022/03/14 11:58:36;;;;;;;14.20;6.13;;;;;;;;;;5053289;28;20043;-78
2022/03/14 12:01:21;;;;;;;16.98;7.07;;;;;;;;;;5066742;28;20552;-80
2022/03/14 12:03:51;;;;;;;16.73;6.07;;;;;;;;;;5069863;28;20489;-78
2022/03/14 12:06:18;;;;;;;14.25;6.47;;;;;;;;;;5053350;28;20476;-79
2022/03/14 12:08:44;;;;;;;12.55;5.85;;;;;;;;;;5052539;28;20473;-79
2022/03/14 12:11:32;;;;;;;17.00;7.50;;;;;;;;;;5069865;28;20115;-79
2022/03/14 12:13:58;;;;;;;15.70;6.72;;;;;;;;;;5050853;28;20082;-77
2022/03/14 12:16:40;;;;;;;17.65;7.00;;;;;;;;;;5052720;28;20140;-80
2022/03/14 12:19:26;;;;;;;20.02;7.50;;;;;;;;;;5068984;28;20044;-80
2022/03/14 12:21:52;;;;;;;16.73;7.35;;;;;;;;;;5067181;28;20036;-78
2022/03/14 12:24:20;;;;;;;16.95;9.25;;;;;;;;;;5069946;28;20124;-80
2022/03/14 12:26:46;;;;;;;14.75;7.43;;;;;;;;;;5052948;28;20039;-81
2022/03/14 12:29:30;;;;;;;20.27;7.97;;;;;;;;;;5067283;28;20111;-80
2022/03/14 12:32:15;;;;;;;17.80;9.00;;;;;;;;;;5068584;28;20048;-80
2022/03/14 12:34:41;;;;;;;17.55;8.48;;;;;;;;;;5068896;28;20067;-80
2022/03/14 12:37:23;;;;;;;16.23;8.40;;;;;;;;;;5052183;28;20055;-81
2022/03/14 12:39:49;;;;;;;18.33;8.18;;;;;;;;;;5050546;28;20032;-81
2022/03/14 12:42:23;;;;;;;16.80;8.02;;;;;;;;;;5052183;28;20032;-80
2022/03/14 12:45:09;;;;;;;16.02;8.18;;;;;;;;;;5066660;28;20150;-80
2022/03/14 12:47:54;;;;;;;23.20;9.45;;;;;;;;;;5068509;28;20040;-81
2022/03/14 12:50:38;;;;;;;22.35;10.10;;;;;;;;;;5049495;28;20120;-81
2022/03/14 12:53:04;;;;;;;20.35;9.85;;;;;;;;;;5055315;28;20044;-79
2022/03/14 12:55:30;;;;;;;22.60;10.13;;;;;;;;;;5073540;28;20132;-79
2022/03/14 12:57:56;;;;;;;19.08;10.13;;;;;;;;;;5073968;28;20071;-79
2022/03/14 13:00:22;;;;;;;21.58;10.82;;;;;;;;;;5057722;28;20045;-80
2022/03/14 13:02:49;;;;;;;20.67;11.52;;;;;;;;;;5075027;28;20037;-80
2022/03/14 13:05:18;;;;;;;24.13;11.65;;;;;;;;;;5055861;28;20177;-78
2022/03/14 13:07:44;;;;;;;25.95;13.15;;;;;;;;;;5057599;28;20056;-78
2022/03/14 13:10:10;;;;;;;21.90;11.68;;;;;;;;;;5057293;28;20036;-80
2022/03/14 13:12:36;;;;;;;26.33;14.00;;;;;;;;;;5057973;28;20036;-79
2022/03/14 13:15:07;;;;;;;30.48;12.63;;;;;;;;;;5057249;28;20080;-78
2022/03/14 13:17:33;;;;;;;27.70;13.27;;;;;;;;;;5057120;28;20115;-78
2022/03/14 13:19:59;;;;;;;28.73;13.82;;;;;;;;;;5057039;28;20291;-79
2022/03/14 13:22:26;;;;;;;24.02;12.93;;;;;;;;;;5073179;28;20404;-78
2022/03/14 13:24:53;;;;;;;28.30;13.23;;;;;;;;;;5057238;28;20032;-77
2022/03/14 13:27:26;;;;;;;27.15;14.40;;;;;;;;;;5070139;28;20048;-79
2022/03/14 13:29:52;;;;;;;28.75;14.25;;;;;;;;;;5056119;28;20029;-78
2022/03/14 13:32:21;;;;;;;26.67;13.43;;;;;;;;;;5072733;28;20038;-80
2022/03/14 13:35:03;;;;;;;27.77;14.13;;;;;;;;;;5055717;28;20048;-78
2022/03/14 13:37:29;;;;;;;28.35;13.38;;;;;;;;;;5070669;28;20044;-78
2022/03/14 13:39:55;;;;;;;19.88;12.68;;;;;;;;;;5073643;28;20074;-79
2022/03/14 13:42:21;;;;;;;21.75;10.23;;;;;;;;;;5072960;28;20445;-78
2022/03/14 13:44:48;;;;;;;21.30;10.13;;;;;;;;;;5072981;28;20127;-79
2022/03/14 13:47:21;;;;;;;18.42;9.90;;;;;;;;;;5073204;28;20139;-76
2022/03/14 13:49:59;;;;;;;17.85;8.73;;;;;;;;;;5053964;28;20048;-74
2022/03/14 13:52:26;;;;;;;17.40;8.85;;;;;;;;;;5054233;28;20028;-79
2022/03/14 13:54:53;;;;;;;18.27;9.77;;;;;;;;;;5074184;28;20045;-76
2022/03/14 13:57:22;;;;;;;22.63;9.63;;;;;;;;;;5072968;28;20048;-79
2022/03/14 13:59:49;;;;;;;16.83;8.85;;;;;;;;;;5072869;28;20033;-80
2022/03/14 14:02:16;;;;;;;19.23;9.10;;;;;;;;;;5073072;28;20123;-78
2022/03/14 14:04:46;;;;;;;16.77;9.68;;;;;;;;;;5068707;28;20093;-78
2022/03/14 14:07:22;;;;;;;17.98;8.70;;;;;;;;;;5072704;28;20102;-77
2022/03/14 14:09:50;;;;;;;16.67;9.65;;;;;;;;;;5069176;28;20366;-78
2022/03/14 14:12:22;;;;;;;20.10;8.82;;;;;;;;;;5055981;28;20515;-78
2022/03/14 14:14:55;;;;;;;16.40;7.82;;;;;;;;;;5053675;28;20431;-73
2022/03/14 14:17:22;;;;;;;20.35;8.30;;;;;;;;;;5073402;28;20052;-76
2022/03/14 14:20:03;;;;;;;14.50;7.97;;;;;;;;;;5072459;28;20066;-78
2022/03/14 14:22:33;;;;;;;14.10;7.28;;;;;;;;;;5070796;28;20041;-79
2022/03/14 14:25:00;;;;;;;14.23;7.00;;;;;;;;;;5055589;28;20047;-79
2022/03/14 14:27:29;;;;;;;11.98;7.30;;;;;;;;;;5056174;28;20033;-78
2022/03/14 14:29:55;;;;;;;16.55;7.28;;;;;;;;;;5072902;28;20043;-75
2022/03/14 14:32:22;;;;;;;13.48;6.68;;;;;;;;;;5072510;28;20063;-78
2022/03/14 14:34:48;;;;;;;15.10;7.07;;;;;;;;;;5055240;28;20477;-74
2022/03/14 14:37:14;;;;;;;15.27;6.60;;;;;;;;;;5053311;28;20484;-77